Time;durP1;ratioP1;P1;durP2;ratioP2;P2;SDS_P1;SDS_P2;PMS_P1;PMS_P2;Temp;Humidity;BMP_temperature;BMP_pressure;BME280_temperature;BME280_humidity;BME280_pressure;Samples;Min_cycle;Max_cycle;Signal;HPM_P1;HPM_P2
2022/12/06 00:00:39;;;;;;;18.48;10.88;;;;;;;;;;4929526;29;20031;-72
2022/12/06 00:03:05;;;;;;;18.05;10.57;;;;;;;;;;4932056;29;20460;-73
2022/12/06 00:05:31;;;;;;;23.95;13.63;;;;;;;;;;4932676;29;20720;-71
2022/12/06 00:07:57;;;;;;;17.42;10.98;;;;;;;;;;4933529;29;20039;-72
2022/12/06 00:10:24;;;;;;;11.10;7.50;;;;;;;;;;4932198;29;20031;-70
2022/12/06 00:12:50;;;;;;;13.48;8.13;;;;;;;;;;4934269;29;20036;-71
2022/12/06 00:15:16;;;;;;;13.05;8.68;;;;;;;;;;4931992;29;20027;-70
2022/12/06 00:17:42;;;;;;;11.10;7.20;;;;;;;;;;4931663;29;20045;-70
2022/12/06 00:20:09;;;;;;;19.05;9.50;;;;;;;;;;4931791;29;20038;-71
2022/12/06 00:22:35;;;;;;;12.45;8.60;;;;;;;;;;4927208;29;20048;-71
2022/12/06 00:25:01;;;;;;;11.93;7.70;;;;;;;;;;4933387;29;20027;-71
2022/12/06 00:27:27;;;;;;;13.65;8.27;;;;;;;;;;4933304;29;20042;-72
2022/12/06 00:29:52;;;;;;;12.70;7.50;;;;;;;;;;4930855;29;20369;-72
2022/12/06 00:32:18;;;;;;;10.82;7.43;;;;;;;;;;4930351;29;20067;-72
2022/12/06 00:34:45;;;;;;;12.60;7.25;;;;;;;;;;4928109;29;20032;-71
2022/12/06 00:37:10;;;;;;;12.65;7.30;;;;;;;;;;4932547;29;20031;-71
2022/12/06 00:39:36;;;;;;;9.77;7.05;;;;;;;;;;4933845;29;20114;-71
2022/12/06 00:42:02;;;;;;;10.43;6.88;;;;;;;;;;4932572;29;20042;-71
2022/12/06 00:44:28;;;;;;;12.77;6.95;;;;;;;;;;4927125;29;20016;-71
2022/12/06 00:46:54;;;;;;;13.48;7.32;;;;;;;;;;4933769;29;20552;-72
2022/12/06 00:50:15;;;;;;;11.85;7.55;;;;;;;;;;4932858;29;20028;-71
2022/12/06 00:52:41;;;;;;;12.48;8.55;;;;;;;;;;4930224;29;20620;-71
2022/12/06 00:55:07;;;;;;;14.25;9.10;;;;;;;;;;4933165;29;20107;-71
2022/12/06 00:57:33;;;;;;;16.55;10.10;;;;;;;;;;4933986;29;20035;-71
2022/12/06 00:59:59;;;;;;;20.30;11.57;;;;;;;;;;4933917;29;20532;-73
2022/12/06 01:02:25;;;;;;;17.98;11.02;;;;;;;;;;4932800;29;20028;-73
2022/12/06 01:04:51;;;;;;;18.17;12.25;;;;;;;;;;4932008;29;20119;-72
2022/12/06 01:07:17;;;;;;;18.67;12.82;;;;;;;;;;4932870;29;20035;-72
2022/12/06 01:09:43;;;;;;;21.20;15.15;;;;;;;;;;4928186;29;20095;-72
2022/12/06 01:12:09;;;;;;;23.23;15.88;;;;;;;;;;4930299;29;20035;-71
2022/12/06 01:14:35;;;;;;;25.13;17.77;;;;;;;;;;4933146;29;20028;-72
2022/12/06 01:17:00;;;;;;;19.95;15.10;;;;;;;;;;4933129;29;20449;-72
2022/12/06 01:19:26;;;;;;;22.27;15.13;;;;;;;;;;4933504;29;20034;-71
2022/12/06 01:21:52;;;;;;;20.42;15.93;;;;;;;;;;4933373;29;20056;-71
2022/12/06 01:24:18;;;;;;;20.25;14.13;;;;;;;;;;4933322;29;20053;-71
2022/12/06 01:26:44;;;;;;;20.30;13.85;;;;;;;;;;4916653;28;20073;-72
2022/12/06 01:29:10;;;;;;;17.10;12.85;;;;;;;;;;4933526;28;20046;-72
2022/12/06 01:31:36;;;;;;;17.27;13.13;;;;;;;;;;4937368;29;20036;-72
2022/12/06 01:34:02;;;;;;;19.30;13.95;;;;;;;;;;4933452;29;20035;-71
2022/12/06 01:36:28;;;;;;;15.20;10.93;;;;;;;;;;4941367;29;20036;-71
2022/12/06 01:38:57;;;;;;;16.02;11.77;;;;;;;;;;4937408;29;20095;-71
2022/12/06 01:41:25;;;;;;;16.55;10.55;;;;;;;;;;4937014;29;20215;-71
2022/12/06 01:43:53;;;;;;;17.98;12.18;;;;;;;;;;4936504;29;20027;-71
2022/12/06 01:46:24;;;;;;;19.23;13.13;;;;;;;;;;4935528;29;20035;-71
2022/12/06 01:48:55;;;;;;;20.30;13.25;;;;;;;;;;4933459;29;20030;-72
2022/12/06 01:51:21;;;;;;;18.23;12.40;;;;;;;;;;4929343;29;20572;-72
2022/12/06 01:53:50;;;;;;;16.52;11.75;;;;;;;;;;4936962;29;20610;-72
2022/12/06 01:56:16;;;;;;;17.30;11.20;;;;;;;;;;4936621;29;20038;-72
2022/12/06 01:58:45;;;;;;;15.18;10.10;;;;;;;;;;4937344;29;20485;-72
2022/12/06 02:01:11;;;;;;;13.00;9.18;;;;;;;;;;4950355;28;20086;-71
2022/12/06 02:03:37;;;;;;;12.70;8.40;;;;;;;;;;4937008;29;20051;-70
2022/12/06 02:06:06;;;;;;;11.95;7.85;;;;;;;;;;4937678;29;20400;-71
2022/12/06 02:08:33;;;;;;;11.20;8.40;;;;;;;;;;4932420;29;20122;-72
2022/12/06 02:11:42;;;;;;;12.32;8.52;;;;;;;;;;4936133;29;20114;-71
2022/12/06 02:14:13;;;;;;;17.17;10.25;;;;;;;;;;4944003;29;20039;-71
2022/12/06 02:17:00;;;;;;;16.52;11.38;;;;;;;;;;4936586;29;20044;-72
2022/12/06 02:19:35;;;;;;;16.10;11.57;;;;;;;;;;4936816;29;20086;-71
2022/12/06 02:22:04;;;;;;;16.55;10.77;;;;;;;;;;4936975;29;20039;-72
2022/12/06 02:24:45;;;;;;;19.10;11.98;;;;;;;;;;4941390;28;20099;-71
2022/12/06 02:27:30;;;;;;;15.43;11.68;;;;;;;;;;4936706;29;20401;-71
2022/12/06 02:30:26;;;;;;;19.50;13.55;;;;;;;;;;4935415;29;20059;-72
2022/12/06 02:33:03;;;;;;;18.63;13.80;;;;;;;;;;4927071;29;20070;-71
2022/12/06 02:35:40;;;;;;;20.52;14.98;;;;;;;;;;4938738;28;20052;-71
2022/12/06 02:38:16;;;;;;;21.45;14.82;;;;;;;;;;4937003;29;20118;-72
2022/12/06 02:40:51;;;;;;;21.25;14.93;;;;;;;;;;4935932;29;20043;-72
2022/12/06 02:43:22;;;;;;;24.13;16.40;;;;;;;;;;4923644;29;20039;-72
2022/12/06 02:45:53;;;;;;;25.15;17.67;;;;;;;;;;4917103;29;20143;-72
2022/12/06 02:48:21;;;;;;;31.85;20.60;;;;;;;;;;4929465;29;20064;-71
2022/12/06 02:50:59;;;;;;;33.00;22.45;;;;;;;;;;4935001;29;20031;-72
2022/12/06 02:53:28;;;;;;;36.38;23.58;;;;;;;;;;4937200;29;20042;-71
2022/12/06 02:55:54;;;;;;;31.05;19.65;;;;;;;;;;4934871;29;20393;-71
2022/12/06 02:58:20;;;;;;;25.83;17.85;;;;;;;;;;4925520;29;20046;-71
2022/12/06 03:00:50;;;;;;;25.48;17.35;;;;;;;;;;4918329;29;20099;-71
2022/12/06 03:03:31;;;;;;;18.55;11.98;;;;;;;;;;4934479;29;20038;-71
2022/12/06 03:06:00;;;;;;;18.20;12.30;;;;;;;;;;4936413;29;20184;-71
2022/12/06 03:08:48;;;;;;;18.20;12.38;;;;;;;;;;4935998;29;20500;-71
2022/12/06 03:11:16;;;;;;;18.33;11.15;;;;;;;;;;4933587;29;20039;-72
2022/12/06 03:13:58;;;;;;;18.45;11.60;;;;;;;;;;4931536;29;20074;-72
2022/12/06 03:16:33;;;;;;;16.13;10.88;;;;;;;;;;4936122;29;20039;-72
2022/12/06 03:19:14;;;;;;;13.45;9.32;;;;;;;;;;4935932;28;20390;-72
2022/12/06 03:21:53;;;;;;;14.85;9.52;;;;;;;;;;4935987;29;20075;-72
2022/12/06 03:24:21;;;;;;;13.52;9.45;;;;;;;;;;4918023;29;20051;-71
2022/12/06 03:26:50;;;;;;;16.20;9.45;;;;;;;;;;4917503;29;20107;-71
2022/12/06 03:29:19;;;;;;;13.18;8.93;;;;;;;;;;4916045;29;20059;-72
2022/12/06 03:31:47;;;;;;;12.15;8.15;;;;;;;;;;4947374;29;20039;-72
2022/12/06 03:34:28;;;;;;;14.88;8.32;;;;;;;;;;4935467;29;20044;-72
2022/12/06 03:36:55;;;;;;;12.48;8.85;;;;;;;;;;4934935;29;20040;-71
2022/12/06 03:39:35;;;;;;;12.07;8.35;;;;;;;;;;4933140;29;20163;-71
2022/12/06 03:42:02;;;;;;;13.95;7.80;;;;;;;;;;4935755;29;20043;-71
2022/12/06 03:44:28;;;;;;;18.33;8.52;;;;;;;;;;4917570;29;20494;-71
2022/12/06 03:47:01;;;;;;;15.60;9.27;;;;;;;;;;4934208;29;20118;-71
2022/12/06 03:49:34;;;;;;;13.38;8.48;;;;;;;;;;4935211;29;20524;-71
2022/12/06 03:52:01;;;;;;;14.80;9.23;;;;;;;;;;4935555;29;20042;-72
2022/12/06 03:54:26;;;;;;;15.40;9.52;;;;;;;;;;4935080;29;20059;-71
2022/12/06 03:56:52;;;;;;;16.38;9.43;;;;;;;;;;4935465;29;20048;-71
2022/12/06 03:59:18;;;;;;;20.15;11.05;;;;;;;;;;4929950;29;20473;-71
2022/12/06 04:01:44;;;;;;;17.95;10.70;;;;;;;;;;4931137;29;20071;-71
2022/12/06 04:04:10;;;;;;;16.42;10.55;;;;;;;;;;4935070;29;20084;-72
2022/12/06 04:06:36;;;;;;;19.83;11.00;;;;;;;;;;4934912;29;20035;-71
2022/12/06 04:11:46;;;;;;;21.08;10.35;;;;;;;;;;4934059;29;20043;-72
2022/12/06 04:14:12;;;;;;;18.75;11.27;;;;;;;;;;4934794;29;20024;-71
2022/12/06 04:19:23;;;;;;;21.98;10.95;;;;;;;;;;4934710;29;20047;-72
2022/12/06 04:24:33;;;;;;;24.45;11.30;;;;;;;;;;4935011;29;20046;-73
2022/12/06 04:40:46;;;;;;;16.77;9.63;;;;;;;;;;4934734;29;20075;-72
2022/12/06 04:45:57;;;;;;;23.33;11.82;;;;;;;;;;4933820;29;20119;-71
2022/12/06 04:48:23;;;;;;;22.17;11.65;;;;;;;;;;4928037;29;20103;-72
2022/12/06 04:50:49;;;;;;;22.38;11.60;;;;;;;;;;4915910;29;20044;-72
2022/12/06 04:53:15;;;;;;;26.73;13.52;;;;;;;;;;4915770;29;20080;-72
2022/12/06 04:55:48;;;;;;;26.85;14.10;;;;;;;;;;4914903;29;20044;-72
2022/12/06 04:58:15;;;;;;;;;;;;;;;;;;4920551;29;20043;-72
2022/12/06 05:00:43;;;;;;;26.15;13.80;;;;;;;;;;4932714;29;19970;-72
2022/12/06 05:03:13;;;;;;;32.70;13.48;;;;;;;;;;4931330;29;20540;-73
2022/12/06 05:05:40;;;;;;;31.92;16.50;;;;;;;;;;4941279;29;20475;-72
2022/12/06 05:08:05;;;;;;;35.25;17.60;;;;;;;;;;4947108;29;20063;-73
2022/12/06 05:10:31;;;;;;;43.95;19.80;;;;;;;;;;4936541;29;20069;-72
2022/12/06 05:12:58;;;;;;;33.70;17.33;;;;;;;;;;4934639;29;20111;-71
2022/12/06 05:15:24;;;;;;;37.42;17.92;;;;;;;;;;4936237;29;20541;-71
2022/12/06 05:17:50;;;;;;;37.78;19.10;;;;;;;;;;4937581;29;20034;-72
2022/12/06 05:20:16;;;;;;;36.33;19.65;;;;;;;;;;4937447;29;20050;-72
2022/12/06 05:22:42;;;;;;;34.65;19.77;;;;;;;;;;4934907;29;20494;-73
2022/12/06 05:25:08;;;;;;;35.78;19.05;;;;;;;;;;4938383;28;20115;-73
2022/12/06 05:27:34;;;;;;;32.92;18.58;;;;;;;;;;4935458;29;20031;-75
2022/12/06 05:30:00;;;;;;;31.33;18.83;;;;;;;;;;4936204;29;20039;-72
2022/12/06 05:32:26;;;;;;;28.27;15.57;;;;;;;;;;4937817;28;20021;-75
2022/12/06 05:34:52;;;;;;;31.23;16.65;;;;;;;;;;4935807;29;20066;-74
2022/12/06 05:37:18;;;;;;;28.00;16.50;;;;;;;;;;4937440;29;20481;-74
2022/12/06 05:39:44;;;;;;;29.25;16.48;;;;;;;;;;4934012;29;20044;-73
2022/12/06 05:42:11;;;;;;;29.60;16.50;;;;;;;;;;4937451;29;20074;-74
2022/12/06 05:44:37;;;;;;;26.83;15.98;;;;;;;;;;4932914;29;20142;-74
2022/12/06 05:47:03;;;;;;;24.75;14.80;;;;;;;;;;4937641;29;20137;-74
2022/12/06 05:49:28;;;;;;;25.30;13.95;;;;;;;;;;4938177;29;20035;-74
2022/12/06 05:51:54;;;;;;;23.35;15.05;;;;;;;;;;4938213;29;20135;-74
2022/12/06 05:54:20;;;;;;;22.42;13.50;;;;;;;;;;4938030;29;20028;-73
2022/12/06 05:56:48;;;;;;;22.08;12.98;;;;;;;;;;4937391;29;20039;-74
2022/12/06 05:59:14;;;;;;;26.92;14.00;;;;;;;;;;4935734;29;20046;-74
2022/12/06 06:01:41;;;;;;;26.20;14.48;;;;;;;;;;4936880;29;20028;-74
2022/12/06 06:04:07;;;;;;;24.25;14.77;;;;;;;;;;4935572;29;20045;-74
2022/12/06 06:06:33;;;;;;;22.60;13.20;;;;;;;;;;4937909;29;20019;-74
2022/12/06 06:08:59;;;;;;;20.85;12.43;;;;;;;;;;4937652;29;20043;-74
2022/12/06 06:11:25;;;;;;;24.60;13.18;;;;;;;;;;4936308;29;20035;-74
2022/12/06 06:13:53;;;;;;;21.08;12.25;;;;;;;;;;4936449;29;20386;-73
2022/12/06 06:16:20;;;;;;;24.35;13.30;;;;;;;;;;4935326;29;20036;-75
2022/12/06 06:18:46;;;;;;;22.67;12.90;;;;;;;;;;4936022;29;20572;-74
2022/12/06 06:21:12;;;;;;;25.40;13.27;;;;;;;;;;4938070;28;20081;-74
2022/12/06 06:23:38;;;;;;;24.45;11.93;;;;;;;;;;4938702;29;20067;-74
2022/12/06 06:26:09;;;;;;;19.83;12.20;;;;;;;;;;4937175;29;20043;-74
2022/12/06 06:28:35;;;;;;;24.23;11.25;;;;;;;;;;4951564;29;20107;-73
2022/12/06 06:31:04;;;;;;;20.83;11.88;;;;;;;;;;4935445;29;20131;-74
2022/12/06 06:33:31;;;;;;;25.35;12.73;;;;;;;;;;4937659;29;20028;-74
2022/12/06 06:35:57;;;;;;;23.45;12.23;;;;;;;;;;4935779;29;20038;-74
2022/12/06 06:38:24;;;;;;;22.00;11.65;;;;;;;;;;4937193;29;20135;-74
2022/12/06 06:40:49;;;;;;;23.05;11.55;;;;;;;;;;4951988;29;20091;-74
2022/12/06 06:43:19;;;;;;;19.85;11.73;;;;;;;;;;4936292;29;20066;-75
2022/12/06 06:45:52;;;;;;;19.40;11.98;;;;;;;;;;4937244;29;20024;-74
2022/12/06 06:48:18;;;;;;;;;;;;;;;;;;4938518;29;20054;-74
2022/12/06 06:50:44;;;;;;;26.35;15.05;;;;;;;;;;4937320;29;19910;-74
2022/12/06 06:53:11;;;;;;;23.35;12.93;;;;;;;;;;4937379;29;20067;-75
2022/12/06 06:55:37;;;;;;;25.17;13.27;;;;;;;;;;4935697;29;20482;-74
2022/12/06 06:58:04;;;;;;;22.48;11.90;;;;;;;;;;4935102;29;20038;-74
2022/12/06 07:00:32;;;;;;;22.83;11.98;;;;;;;;;;4937066;29;20044;-73
2022/12/06 07:02:58;;;;;;;26.08;13.10;;;;;;;;;;4936834;29;20075;-74
2022/12/06 07:05:24;;;;;;;21.00;12.30;;;;;;;;;;4937071;29;20032;-73
2022/12/06 07:07:50;;;;;;;22.38;12.13;;;;;;;;;;4938176;29;20046;-72
2022/12/06 07:10:16;;;;;;;32.17;13.38;;;;;;;;;;4940046;29;20110;-75
2022/12/06 07:12:42;;;;;;;28.38;13.77;;;;;;;;;;4945066;29;20043;-74
2022/12/06 07:15:08;;;;;;;22.17;12.13;;;;;;;;;;4942927;29;20557;-74
2022/12/06 07:17:35;;;;;;;31.75;13.18;;;;;;;;;;4938369;29;20067;-75
2022/12/06 07:20:00;;;;;;;26.95;12.75;;;;;;;;;;4935465;29;20077;-75
2022/12/06 07:22:26;;;;;;;27.95;12.68;;;;;;;;;;4935932;29;20079;-76
2022/12/06 07:24:52;;;;;;;23.50;12.63;;;;;;;;;;4936626;29;20035;-75
2022/12/06 07:27:18;;;;;;;35.58;15.02;;;;;;;;;;4936932;29;20039;-75
2022/12/06 07:29:44;;;;;;;28.98;13.10;;;;;;;;;;4935567;29;20118;-74
2022/12/06 07:32:10;;;;;;;28.98;13.45;;;;;;;;;;4936930;29;20093;-74
2022/12/06 07:34:35;;;;;;;22.52;11.80;;;;;;;;;;4937002;29;20031;-72
2022/12/06 07:37:05;;;;;;;16.15;10.50;;;;;;;;;;4936246;29;20098;-73
2022/12/06 07:39:31;;;;;;;37.25;11.30;;;;;;;;;;4936445;29;20036;-73
2022/12/06 07:45:00;;;;;;;37.75;14.90;;;;;;;;;;4935521;29;20035;-75
2022/12/06 07:47:34;;;;;;;17.05;11.50;;;;;;;;;;4934669;29;20032;-75
2022/12/06 07:50:04;;;;;;;19.02;12.13;;;;;;;;;;4934499;29;20516;-76
2022/12/06 07:52:34;;;;;;;22.98;13.70;;;;;;;;;;4935937;29;20032;-74
2022/12/06 07:55:00;;;;;;;20.80;12.77;;;;;;;;;;4935934;29;20086;-74
2022/12/06 07:57:27;;;;;;;23.20;13.25;;;;;;;;;;4935958;29;20107;-76
2022/12/06 07:59:54;;;;;;;19.48;12.63;;;;;;;;;;4935374;29;20111;-75
2022/12/06 08:02:24;;;;;;;23.08;13.05;;;;;;;;;;4935790;29;20035;-74
2022/12/06 08:04:50;;;;;;;33.20;13.63;;;;;;;;;;4935277;29;20030;-74
2022/12/06 08:07:17;;;;;;;21.40;12.82;;;;;;;;;;4935632;29;20517;-72
2022/12/06 08:09:43;;;;;;;20.90;12.88;;;;;;;;;;4934729;29;20114;-73
2022/12/06 08:12:09;;;;;;;21.60;12.10;;;;;;;;;;4935324;29;20419;-74
2022/12/06 08:14:36;;;;;;;25.55;12.57;;;;;;;;;;4935363;29;20047;-75
2022/12/06 08:17:03;;;;;;;21.85;12.43;;;;;;;;;;4935090;29;20038;-73
2022/12/06 08:19:29;;;;;;;24.40;12.15;;;;;;;;;;4935700;29;20560;-74
2022/12/06 08:21:55;;;;;;;22.95;11.82;;;;;;;;;;4935956;28;20142;-74
2022/12/06 08:24:26;;;;;;;19.55;11.70;;;;;;;;;;4936876;29;20401;-77
2022/12/06 08:26:52;;;;;;;24.08;12.38;;;;;;;;;;4936623;28;20043;-76
2022/12/06 08:29:19;;;;;;;22.67;11.73;;;;;;;;;;4936173;29;20374;-77
2022/12/06 08:31:45;;;;;;;32.83;12.30;;;;;;;;;;4935408;29;20119;-78
2022/12/06 08:34:12;;;;;;;31.27;11.43;;;;;;;;;;4934312;29;20035;-75
2022/12/06 08:36:38;;;;;;;19.42;9.77;;;;;;;;;;4950214;29;20039;-76
2022/12/06 08:39:07;;;;;;;18.55;9.35;;;;;;;;;;4927559;29;20024;-76
2022/12/06 08:44:19;;;;;;;25.63;10.13;;;;;;;;;;4918612;29;20639;-75
2022/12/06 08:46:45;;;;;;;16.27;9.20;;;;;;;;;;4949225;29;20391;-74
2022/12/06 08:49:12;;;;;;;19.35;8.90;;;;;;;;;;4933778;29;20035;-75
2022/12/06 08:51:38;;;;;;;27.38;9.65;;;;;;;;;;4934998;29;20048;-75
2022/12/06 08:54:11;;;;;;;25.08;9.13;;;;;;;;;;4934758;29;20509;-78
2022/12/06 08:56:37;;;;;;;19.45;7.28;;;;;;;;;;4934423;29;20060;-75
2022/12/06 08:59:04;;;;;;;32.03;9.70;;;;;;;;;;4934385;29;20051;-75
2022/12/06 09:01:33;;;;;;;16.48;7.38;;;;;;;;;;4935102;29;20058;-76
2022/12/06 09:04:05;;;;;;;12.90;7.50;;;;;;;;;;4935012;29;20115;-77
2022/12/06 09:06:32;;;;;;;13.27;7.30;;;;;;;;;;4917963;29;20130;-76
2022/12/06 09:09:00;;;;;;;9.60;6.50;;;;;;;;;;4934131;29;20048;-76
2022/12/06 09:11:26;;;;;;;12.82;7.20;;;;;;;;;;4934671;29;20036;-76
2022/12/06 09:13:54;;;;;;;11.93;6.53;;;;;;;;;;4922914;29;20036;-76
2022/12/06 09:16:21;;;;;;;14.80;7.95;;;;;;;;;;4915518;29;20040;-78
2022/12/06 09:18:50;;;;;;;14.27;6.72;;;;;;;;;;4916306;29;20028;-77
2022/12/06 09:21:22;;;;;;;12.45;7.00;;;;;;;;;;4916213;29;20108;-78
2022/12/06 09:23:48;;;;;;;19.70;7.65;;;;;;;;;;4916184;29;20043;-78
2022/12/06 09:26:17;;;;;;;16.67;6.90;;;;;;;;;;4930036;29;20480;-76
2022/12/06 09:28:45;;;;;;;18.55;7.70;;;;;;;;;;4935618;29;20163;-76
2022/12/06 09:31:10;;;;;;;14.43;7.13;;;;;;;;;;4933439;29;20095;-78
2022/12/06 09:33:37;;;;;;;17.30;8.07;;;;;;;;;;4933991;29;20106;-76
2022/12/06 09:36:12;;;;;;;28.42;8.75;;;;;;;;;;4923840;29;20032;-77
2022/12/06 09:38:41;;;;;;;28.73;8.45;;;;;;;;;;4914213;29;20505;-78
2022/12/06 09:41:34;;;;;;;26.02;8.93;;;;;;;;;;4915127;29;20406;-76
2022/12/06 09:44:29;;;;;;;25.90;7.00;;;;;;;;;;4916072;29;20040;-77
2022/12/06 09:47:13;;;;;;;15.93;7.20;;;;;;;;;;4928246;29;20401;-76
2022/12/06 09:50:00;;;;;;;30.48;9.23;;;;;;;;;;4917419;29;20043;-79
2022/12/06 09:52:40;;;;;;;12.23;7.30;;;;;;;;;;4928579;29;20080;-77
2022/12/06 09:55:23;;;;;;;45.53;10.73;;;;;;;;;;4938043;29;20044;-76
2022/12/06 09:57:57;;;;;;;17.33;8.45;;;;;;;;;;4939557;29;20146;-76
2022/12/06 10:00:27;;;;;;;11.63;7.13;;;;;;;;;;4934383;29;20032;-76
2022/12/06 10:03:22;;;;;;;14.82;7.70;;;;;;;;;;4934410;29;20086;-75
2022/12/06 10:06:04;;;;;;;14.98;7.22;;;;;;;;;;4917264;29;20051;-76
2022/12/06 10:08:49;;;;;;;13.13;7.78;;;;;;;;;;4932757;29;20071;-77
2022/12/06 10:11:33;;;;;;;22.25;9.52;;;;;;;;;;4917476;29;20043;-77
2022/12/06 10:14:01;;;;;;;15.73;8.30;;;;;;;;;;4927315;29;20031;-76
2022/12/06 10:16:47;;;;;;;25.17;8.45;;;;;;;;;;4936676;29;20098;-77
2022/12/06 10:19:44;;;;;;;16.45;8.88;;;;;;;;;;4935015;29;20036;-77
2022/12/06 10:22:48;;;;;;;35.53;13.30;;;;;;;;;;4918850;29;20064;-78
2022/12/06 10:25:24;;;;;;;15.02;8.02;;;;;;;;;;4919440;29;20401;-78
2022/12/06 10:27:56;;;;;;;20.00;10.00;;;;;;;;;;4918365;29;20036;-78
2022/12/06 10:30:22;;;;;;;25.02;10.07;;;;;;;;;;4917339;29;20057;-75
2022/12/06 10:33:04;;;;;;;22.08;8.60;;;;;;;;;;4917942;29;20050;-76
2022/12/06 10:36:04;;;;;;;44.78;10.80;;;;;;;;;;4916667;29;20116;-77
2022/12/06 10:39:03;;;;;;;19.15;8.90;;;;;;;;;;4907593;29;20462;-78
2022/12/06 10:41:58;;;;;;;16.17;7.97;;;;;;;;;;4914444;29;20056;-77
2022/12/06 10:44:38;;;;;;;34.80;10.50;;;;;;;;;;4931769;29;20048;-77
2022/12/06 10:47:13;;;;;;;16.35;8.00;;;;;;;;;;4918040;29;20040;-77
2022/12/06 10:49:54;;;;;;;21.25;7.78;;;;;;;;;;4918249;29;20469;-76
2022/12/06 10:52:39;;;;;;;17.38;7.32;;;;;;;;;;4918130;29;20035;-73
2022/12/06 10:55:08;;;;;;;17.88;7.45;;;;;;;;;;4917691;29;20036;-77
2022/12/06 10:57:55;;;;;;;16.30;7.05;;;;;;;;;;4917709;29;20341;-77
2022/12/06 11:00:24;;;;;;;18.05;6.85;;;;;;;;;;4916727;29;20066;-78
2022/12/06 11:02:50;;;;;;;16.67;6.75;;;;;;;;;;4915906;29;20028;-78
2022/12/06 11:05:29;;;;;;;13.32;6.30;;;;;;;;;;4916611;29;20039;-77
2022/12/06 11:08:17;;;;;;;15.23;7.45;;;;;;;;;;4917832;29;20112;-77
2022/12/06 11:10:45;;;;;;;9.40;6.45;;;;;;;;;;4918854;29;20077;-77
2022/12/06 11:13:34;;;;;;;13.93;6.97;;;;;;;;;;4916759;29;20024;-77
2022/12/06 11:16:04;;;;;;;15.05;7.60;;;;;;;;;;4915662;29;20044;-78
2022/12/06 11:18:32;;;;;;;14.75;6.95;;;;;;;;;;4917165;29;20035;-78
2022/12/06 11:21:15;;;;;;;13.02;7.90;;;;;;;;;;4916956;29;20114;-77
2022/12/06 11:23:50;;;;;;;12.85;7.15;;;;;;;;;;4916102;29;20039;-78
2022/12/06 11:26:49;;;;;;;11.63;6.78;;;;;;;;;;4915842;29;20386;-75
2022/12/06 11:29:15;;;;;;;15.05;7.00;;;;;;;;;;4901865;29;20051;-76
2022/12/06 11:31:58;;;;;;;19.38;7.30;;;;;;;;;;4916961;29;20092;-77
2022/12/06 11:34:32;;;;;;;10.60;6.03;;;;;;;;;;4934935;29;20102;-78
2022/12/06 11:37:02;;;;;;;12.15;6.53;;;;;;;;;;4935151;29;20040;-76
2022/12/06 11:39:30;;;;;;;26.38;7.93;;;;;;;;;;4934834;29;20119;-77
2022/12/06 11:41:59;;;;;;;17.05;6.57;;;;;;;;;;4935805;29;20027;-77
2022/12/06 11:44:35;;;;;;;13.05;6.50;;;;;;;;;;4935546;29;20040;-76
2022/12/06 11:47:01;;;;;;;10.75;6.78;;;;;;;;;;4936126;29;20055;-77
2022/12/06 11:49:35;;;;;;;17.27;7.82;;;;;;;;;;4934111;29;20084;-77
2022/12/06 11:52:28;;;;;;;13.70;7.00;;;;;;;;;;4935077;29;20054;-76
2022/12/06 11:54:58;;;;;;;15.25;7.20;;;;;;;;;;4934736;29;20458;-76
2022/12/06 11:57:34;;;;;;;12.98;5.78;;;;;;;;;;4935568;29;20043;-77
2022/12/06 12:00:20;;;;;;;10.57;5.78;;;;;;;;;;4934674;29;20458;-77
2022/12/06 12:02:50;;;;;;;13.98;7.45;;;;;;;;;;4935274;29;20036;-76
2022/12/06 12:05:37;;;;;;;9.63;5.93;;;;;;;;;;4921035;29;20107;-75
2022/12/06 12:08:17;;;;;;;11.90;6.80;;;;;;;;;;4914387;29;20101;-76
2022/12/06 12:10:45;;;;;;;12.23;6.25;;;;;;;;;;4914219;29;20447;-78
2022/12/06 12:16:15;;;;;;;36.63;12.77;;;;;;;;;;4914103;29;20134;-76
2022/12/06 12:19:04;;;;;;;14.52;6.32;;;;;;;;;;4914802;29;20028;-77
2022/12/06 12:21:41;;;;;;;9.32;5.90;;;;;;;;;;4916664;29;20056;-77
2022/12/06 12:24:44;;;;;;;13.93;7.85;;;;;;;;;;4915647;29;20123;-77
2022/12/06 12:27:30;;;;;;;15.20;7.97;;;;;;;;;;4917023;29;20115;-75
2022/12/06 12:30:15;;;;;;;14.18;6.25;;;;;;;;;;4917084;29;20161;-76
2022/12/06 12:32:42;;;;;;;9.63;5.20;;;;;;;;;;4931634;29;20032;-74
2022/12/06 12:35:20;;;;;;;9.65;5.45;;;;;;;;;;4917119;29;20028;-77
2022/12/06 12:37:56;;;;;;;25.23;11.00;;;;;;;;;;4917917;29;20040;-76
2022/12/06 12:40:29;;;;;;;9.95;5.10;;;;;;;;;;4917685;29;20478;-76
2022/12/06 12:43:03;;;;;;;36.78;11.10;;;;;;;;;;4916661;29;20478;-76
2022/12/06 12:45:30;;;;;;;45.25;27.33;;;;;;;;;;4931108;29;20032;-76
2022/12/06 12:48:19;;;;;;;40.40;21.30;;;;;;;;;;4899540;29;20048;-75
2022/12/06 12:50:55;;;;;;;38.55;12.15;;;;;;;;;;4916990;29;20059;-77
2022/12/06 12:53:40;;;;;;;35.72;8.93;;;;;;;;;;4916380;29;20060;-76
2022/12/06 12:56:15;;;;;;;17.05;6.65;;;;;;;;;;4916748;29;20032;-77
2022/12/06 12:58:42;;;;;;;28.55;10.32;;;;;;;;;;4915436;29;20040;-74
2022/12/06 13:01:37;;;;;;;18.42;7.13;;;;;;;;;;4916205;29;20024;-76
2022/12/06 13:04:09;;;;;;;17.17;5.75;;;;;;;;;;4916266;29;20036;-77
2022/12/06 13:06:51;;;;;;;40.17;8.30;;;;;;;;;;4915792;29;20036;-77
2022/12/06 13:09:25;;;;;;;26.13;7.85;;;;;;;;;;4916564;29;20059;-77
2022/12/06 13:11:57;;;;;;;30.55;15.98;;;;;;;;;;4930364;29;20056;-76
2022/12/06 13:14:25;;;;;;;37.05;9.63;;;;;;;;;;4931360;29;20035;-75
2022/12/06 13:16:54;;;;;;;38.10;8.98;;;;;;;;;;4934813;29;20106;-77
2022/12/06 13:19:28;;;;;;;31.10;8.50;;;;;;;;;;4934809;28;20206;-76
2022/12/06 13:21:54;;;;;;;30.58;7.97;;;;;;;;;;4933911;29;20052;-75
2022/12/06 13:24:25;;;;;;;33.30;9.98;;;;;;;;;;4934431;29;20042;-77
2022/12/06 13:27:02;;;;;;;34.13;9.80;;;;;;;;;;4937187;29;20027;-76
2022/12/06 13:29:37;;;;;;;30.33;9.93;;;;;;;;;;4938149;29;20071;-77
2022/12/06 13:32:16;;;;;;;22.48;9.50;;;;;;;;;;4937713;29;20035;-75
2022/12/06 13:34:56;;;;;;;18.27;6.43;;;;;;;;;;4936856;29;20067;-76
2022/12/06 13:37:45;;;;;;;21.50;10.80;;;;;;;;;;4927384;29;20036;-76
2022/12/06 13:40:33;;;;;;;19.63;7.35;;;;;;;;;;4949176;29;20528;-74
2022/12/06 13:43:02;;;;;;;11.60;6.28;;;;;;;;;;4935818;29;20038;-77
2022/12/06 13:45:45;;;;;;;15.40;6.15;;;;;;;;;;4934711;28;20026;-75
2022/12/06 13:48:26;;;;;;;13.10;6.20;;;;;;;;;;4935884;29;20135;-74
2022/12/06 13:51:04;;;;;;;28.77;10.20;;;;;;;;;;4933549;29;20092;-74
2022/12/06 13:53:32;;;;;;;19.15;9.32;;;;;;;;;;4936579;29;20032;-72
2022/12/06 13:56:26;;;;;;;32.72;10.75;;;;;;;;;;4934865;29;20836;-76
2022/12/06 13:58:57;;;;;;;17.52;7.93;;;;;;;;;;4932569;29;20543;-74
2022/12/06 14:01:47;;;;;;;27.02;9.15;;;;;;;;;;4934404;29;20040;-74
2022/12/06 14:04:28;;;;;;;34.50;8.63;;;;;;;;;;4937647;29;20374;-75
2022/12/06 14:07:00;;;;;;;29.25;6.97;;;;;;;;;;4929870;29;20106;-74
2022/12/06 14:09:48;;;;;;;38.67;6.82;;;;;;;;;;4936415;29;20027;-76
2022/12/06 14:12:25;;;;;;;32.95;7.82;;;;;;;;;;4935545;29;20123;-73
2022/12/06 14:14:55;;;;;;;29.60;8.07;;;;;;;;;;4936537;29;20032;-73
2022/12/06 14:17:24;;;;;;;31.10;16.17;;;;;;;;;;4937094;29;20061;-73
2022/12/06 14:19:50;;;;;;;31.65;15.57;;;;;;;;;;4936381;29;20015;-72
2022/12/06 14:22:29;;;;;;;27.85;9.32;;;;;;;;;;4936120;29;20054;-72
2022/12/06 14:24:55;;;;;;;22.45;10.45;;;;;;;;;;4935387;29;20489;-73
2022/12/06 14:27:23;;;;;;;25.45;9.80;;;;;;;;;;4935502;29;20031;-75
2022/12/06 14:30:02;;;;;;;26.30;11.13;;;;;;;;;;4935045;29;20036;-71
2022/12/06 14:32:39;;;;;;;24.88;8.35;;;;;;;;;;4934898;29;20131;-74
2022/12/06 14:35:25;;;;;;;20.65;8.98;;;;;;;;;;4936594;29;20043;-74
2022/12/06 14:37:52;;;;;;;25.17;10.02;;;;;;;;;;4949569;28;20110;-75
2022/12/06 14:43:30;;;;;;;22.17;9.57;;;;;;;;;;4936125;29;20041;-74
2022/12/06 14:45:58;;;;;;;28.35;9.75;;;;;;;;;;4949274;29;20401;-73
2022/12/06 14:48:25;;;;;;;34.72;10.85;;;;;;;;;;4933319;29;20050;-73
2022/12/06 14:50:56;;;;;;;33.42;13.00;;;;;;;;;;4935915;29;20059;-73
2022/12/06 14:53:37;;;;;;;13.07;7.47;;;;;;;;;;4935179;29;20043;-75
2022/12/06 14:56:29;;;;;;;13.68;6.93;;;;;;;;;;4920713;29;20104;-74
2022/12/06 14:59:01;;;;;;;34.72;14.68;;;;;;;;;;4935463;29;20047;-74
2022/12/06 15:01:29;;;;;;;48.08;16.40;;;;;;;;;;4933047;29;20040;-75
2022/12/06 15:04:04;;;;;;;35.40;11.73;;;;;;;;;;4936239;29;20488;-72
2022/12/06 15:06:32;;;;;;;18.33;9.88;;;;;;;;;;4950705;29;20032;-72
2022/12/06 15:08:58;;;;;;;12.18;7.68;;;;;;;;;;4933860;29;20481;-71
2022/12/06 15:14:48;;;;;;;32.13;10.27;;;;;;;;;;4891971;29;20044;-73
2022/12/06 15:17:20;;;;;;;19.63;7.80;;;;;;;;;;4893954;29;20444;-74
2022/12/06 15:19:49;;;;;;;13.77;8.07;;;;;;;;;;4915861;29;20039;-74
2022/12/06 15:22:23;;;;;;;24.65;11.35;;;;;;;;;;4935386;29;20043;-72
2022/12/06 15:24:51;;;;;;;24.60;11.00;;;;;;;;;;4933886;29;20027;-73
2022/12/06 15:27:20;;;;;;;33.50;11.82;;;;;;;;;;4929206;29;20118;-71
2022/12/06 15:29:46;;;;;;;32.38;13.07;;;;;;;;;;4932205;29;20031;-74